Time;durP1;ratioP1;P1;durP2;ratioP2;P2;SDS_P1;SDS_P2;PMS_P1;PMS_P2;Temp;Humidity;BMP_temperature;BMP_pressure;BME280_temperature;BME280_humidity;BME280_pressure;Samples;Min_cycle;Max_cycle;Signal;HPM_P1;HPM_P2
2023/01/26 00:01:27;;;;;;;164.57;57.47;;;;;;;-0.05;100.00;102186.84;4956745;28;20080;-81
2023/01/26 00:03:54;;;;;;;102.60;36.17;;;;;;;-0.08;100.00;102175.72;4954105;28;20054;-80
2023/01/26 00:06:22;;;;;;;144.70;46.28;;;;;;;-0.11;100.00;102159.97;4956295;28;20055;-81
2023/01/26 00:08:52;;;;;;;147.70;51.13;;;;;;;-0.08;100.00;102165.66;4964666;28;20047;-80
2023/01/26 00:11:23;;;;;;;53.78;18.40;;;;;;;-0.15;100.00;102167.94;4957175;28;20096;-80
2023/01/26 00:13:50;;;;;;;138.30;44.03;;;;;;;-0.23;100.00;102163.13;4960777;28;20054;-80
2023/01/26 00:16:16;;;;;;;145.88;49.28;;;;;;;-0.12;100.00;102164.63;4959425;28;20058;-81
2023/01/26 00:18:43;;;;;;;163.80;55.05;;;;;;;-0.07;100.00;102166.47;4958228;28;20054;-81
2023/01/26 00:21:19;;;;;;;131.95;45.05;;;;;;;-0.15;100.00;102148.91;4955873;28;20120;-80
2023/01/26 00:23:46;;;;;;;89.15;31.08;;;;;;;-0.23;100.00;102146.78;4957240;28;20057;-80
2023/01/26 00:26:25;;;;;;;159.70;53.30;;;;;;;-0.11;100.00;102146.38;4955470;28;20061;-80
2023/01/26 00:28:52;;;;;;;160.15;55.13;;;;;;;-0.09;100.00;102133.31;4954952;28;20811;-81
2023/01/26 00:31:24;;;;;;;149.82;50.85;;;;;;;-0.06;100.00;102138.97;4963357;28;20054;-81
2023/01/26 00:33:52;;;;;;;151.07;49.38;;;;;;;-0.09;100.00;102127.88;4954215;28;20081;-81
2023/01/26 00:36:20;;;;;;;153.18;51.42;;;;;;;-0.11;100.00;102127.34;4956198;28;20058;-81
2023/01/26 00:38:46;;;;;;;142.10;47.90;;;;;;;-0.05;100.00;102131.63;4958707;28;20059;-81
2023/01/26 00:43:59;;;;;;;146.20;50.80;;;;;;;-0.08;100.00;102122.13;4968736;28;20055;-80
2023/01/26 00:46:26;;;;;;;156.45;49.80;;;;;;;-0.10;100.00;102121.59;4962148;28;20098;-80
2023/01/26 00:48:52;;;;;;;156.57;50.83;;;;;;;-0.10;100.00;102121.59;4957081;28;20062;-80
2023/01/26 00:51:19;;;;;;;151.40;50.50;;;;;;;-0.09;100.00;102116.97;4957849;28;20051;-81
2023/01/26 00:53:45;;;;;;;133.40;43.03;;;;;;;-0.14;100.00;102098.81;4959430;28;20050;-79
2023/01/26 00:56:13;;;;;;;164.35;51.05;;;;;;;-0.04;100.00;102109.56;4952587;28;20050;-80
2023/01/26 00:58:40;;;;;;;149.30;48.60;;;;;;;-0.05;100.00;102107.94;4952632;28;20042;-81
2023/01/26 01:01:07;;;;;;;118.68;38.45;;;;;;;-0.07;100.00;102112.03;4957430;28;20166;-81
2023/01/26 01:03:34;;;;;;;154.95;54.63;;;;;;;-0.07;100.00;102098.44;4958425;28;20078;-81
2023/01/26 01:06:00;;;;;;;141.13;46.25;;;;;;;0.06;100.00;102111.31;4956610;28;20572;-81
2023/01/26 01:08:27;;;;;;;150.05;51.22;;;;;;;0.03;100.00;102099.13;4955103;28;20042;-80
2023/01/26 01:11:05;;;;;;;105.43;34.47;;;;;;;-0.05;100.00;102110.66;4956234;28;20047;-80
2023/01/26 01:13:31;;;;;;;141.20;45.47;;;;;;;-0.04;100.00;102123.16;4970571;28;20053;-79
2023/01/26 01:16:15;;;;;;;145.02;48.78;;;;;;;-0.02;100.00;102118.25;4984589;28;20042;-80
2023/01/26 01:18:43;;;;;;;121.93;40.58;;;;;;;-0.07;100.00;102103.88;4979814;28;20497;-80
2023/01/26 01:21:12;;;;;;;140.93;45.10;;;;;;;-0.07;100.00;102103.88;4985684;28;20042;-80
2023/01/26 01:23:39;;;;;;;150.35;47.40;;;;;;;-0.05;100.00;102101.69;4989189;28;20065;-78
2023/01/26 01:26:06;;;;;;;137.75;39.40;;;;;;;-0.09;100.00;102104.16;4986970;28;20504;-81
2023/01/26 01:28:34;;;;;;;148.13;50.58;;;;;;;-0.06;100.00;102098.16;4976087;28;20078;-79
2023/01/26 01:31:09;;;;;;;21.65;10.00;;;;;;;-0.11;100.00;102102.84;4970998;28;20579;-81
2023/01/26 01:33:36;;;;;;;153.32;47.38;;;;;;;-0.04;100.00;102097.84;4972410;28;20070;-80
2023/01/26 01:36:06;;;;;;;97.65;33.78;;;;;;;-0.16;100.00;102098.28;4982796;28;20879;-80
2023/01/26 01:38:33;;;;;;;128.65;40.28;;;;;;;-0.05;100.00;102105.22;4990544;28;20042;-80
2023/01/26 01:41:00;;;;;;;136.85;43.55;;;;;;;-0.12;100.00;102093.91;4981016;28;20046;-80
2023/01/26 01:43:27;;;;;;;144.05;45.92;;;;;;;-0.03;100.00;102092.13;4985412;28;20081;-80
2023/01/26 01:45:54;;;;;;;151.55;53.95;;;;;;;-0.04;100.00;102095.94;4991367;28;20564;-78
2023/01/26 01:48:45;;;;;;;142.93;45.65;;;;;;;-0.03;100.00;102094.84;4990153;28;20435;-80
2023/01/26 01:51:18;;;;;;;132.48;42.20;;;;;;;-0.03;100.00;102077.72;4991599;28;20134;-80
2023/01/26 01:53:50;;;;;;;146.10;45.78;;;;;;;0.02;100.00;102093.97;4994119;28;20125;-81
2023/01/26 01:56:22;;;;;;;142.23;45.65;;;;;;;0.01;100.00;102092.34;4975582;28;20493;-78
2023/01/26 01:58:53;;;;;;;72.15;24.48;;;;;;;-0.02;100.00;102088.31;4986414;28;20507;-78
2023/01/26 02:01:20;;;;;;;141.30;47.10;;;;;;;-0.01;100.00;102076.31;4975792;28;20049;-78
2023/01/26 02:03:51;;;;;;;125.82;44.45;;;;;;;-0.01;100.00;102076.31;4988876;28;20050;-78
2023/01/26 02:06:27;;;;;;;103.15;34.95;;;;;;;-0.02;100.00;102076.63;4992715;28;20081;-79
2023/01/26 02:08:55;;;;;;;135.10;44.38;;;;;;;-0.08;100.00;102067.72;4971398;28;20122;-80
2023/01/26 02:11:27;;;;;;;149.23;47.25;;;;;;;-0.05;100.00;102060.88;4979536;28;20704;-80
2023/01/26 02:13:56;;;;;;;130.02;43.42;;;;;;;0.08;100.00;102059.31;4975525;28;20046;-80
2023/01/26 02:16:23;;;;;;;149.68;48.67;;;;;;;0.09;100.00;102060.97;4987044;28;20046;-80
2023/01/26 02:18:50;;;;;;;117.10;38.92;;;;;;;0.01;100.00;102056.97;4971624;28;20053;-80
2023/01/26 02:21:20;;;;;;;134.68;41.92;;;;;;;0.08;100.00;102065.59;4978437;28;20529;-80
2023/01/26 02:24:05;;;;;;;137.45;46.45;;;;;;;0.14;100.00;102069.84;4971687;28;20046;-80
2023/01/26 02:26:33;;;;;;;51.47;18.08;;;;;;;0.04;100.00;102062.63;4972552;28;20812;-80
2023/01/26 02:29:01;;;;;;;145.07;48.38;;;;;;;0.10;100.00;102054.41;4969632;28;20047;-80
2023/01/26 02:31:29;;;;;;;137.73;44.92;;;;;;;0.14;100.00;102063.59;4974058;28;20039;-80
2023/01/26 02:33:56;;;;;;;114.57;36.85;;;;;;;0.08;100.00;102062.03;4989951;28;20058;-79
2023/01/26 02:36:25;;;;;;;30.02;14.20;;;;;;;0.03;100.00;102061.03;4992545;28;20050;-80
2023/01/26 02:39:16;;;;;;;140.68;42.65;;;;;;;0.10;100.00;102066.09;4985872;28;20062;-81
2023/01/26 02:44:31;;;;;;;151.48;49.72;;;;;;;0.14;100.00;102058.97;4999869;28;20050;-80
2023/01/26 02:46:57;;;;;;;164.38;49.97;;;;;;;0.23;100.00;102068.06;4989491;28;20047;-78
2023/01/26 02:52:09;;;;;;;;;;;;;;;0.30;100.00;102062.25;4971031;28;20410;-78
2023/01/26 02:57:20;;;;;;;109.50;36.25;;;;;;;0.25;100.00;102062.31;4984128;28;20055;-80
2023/01/26 02:59:47;;;;;;;141.20;42.13;;;;;;;0.21;100.00;102042.25;4972284;28;20054;-80
2023/01/26 03:02:14;;;;;;;160.27;49.25;;;;;;;0.17;100.00;102049.41;4983250;28;20053;-80
2023/01/26 03:04:42;;;;;;;144.25;47.40;;;;;;;0.24;100.00;102052.56;4971380;28;20043;-80
2023/01/26 03:07:09;;;;;;;149.52;46.35;;;;;;;0.23;100.00;102050.94;4982609;28;20046;-80
2023/01/26 03:09:36;;;;;;;159.50;48.25;;;;;;;0.24;100.00;102047.94;4971913;28;20164;-80
2023/01/26 03:12:03;;;;;;;151.75;48.53;;;;;;;0.23;100.00;102045.50;4972226;28;20042;-78
2023/01/26 03:14:29;;;;;;;165.27;50.38;;;;;;;0.29;100.00;102050.56;4975974;28;20065;-79
2023/01/26 03:16:56;;;;;;;143.15;43.75;;;;;;;0.21;100.00;102042.25;4980999;28;20047;-79
2023/01/26 03:27:46;;;;;;;155.18;45.88;;;;;;;0.32;100.00;102049.13;4976562;28;20071;-80
2023/01/26 03:30:17;;;;;;;161.80;48.53;;;;;;;0.34;100.00;102047.75;4978462;28;20051;-80
2023/01/26 03:32:44;;;;;;;162.18;48.80;;;;;;;0.37;100.00;102038.97;4993356;28;20125;-80
2023/01/26 03:35:14;;;;;;;158.05;49.08;;;;;;;0.43;100.00;102042.44;4978919;28;20079;-80
2023/01/26 03:37:43;;;;;;;157.75;49.10;;;;;;;0.41;100.00;102033.75;4978541;28;20049;-81
2023/01/26 03:56:41;;;;;;;148.15;46.20;;;;;;;0.33;100.00;102029.78;4994499;28;20046;-80
2023/01/26 03:59:08;;;;;;;156.38;50.80;;;;;;;0.40;100.00;102032.94;4975665;28;20126;-80
2023/01/26 04:01:36;;;;;;;156.55;51.72;;;;;;;0.40;100.00;102034.88;4978408;28;20070;-80
2023/01/26 04:09:36;;;;;;;146.93;49.42;;;;;;;0.34;100.00;102036.06;4972426;28;20035;-80
2023/01/26 04:12:04;;;;;;;150.43;44.88;;;;;;;0.29;100.00;102031.50;4982523;28;20077;-80
2023/01/26 04:22:47;;;;;;;164.73;48.47;;;;;;;0.28;100.00;102020.91;4993138;28;20133;-80
2023/01/26 04:25:19;;;;;;;155.80;49.42;;;;;;;0.26;100.00;102020.41;4996896;28;20061;-78
2023/01/26 04:27:45;;;;;;;140.48;44.08;;;;;;;0.28;100.00;102023.63;4977271;28;20157;-80
2023/01/26 04:30:14;;;;;;;155.27;46.78;;;;;;;0.31;100.00;102025.75;4976634;28;20537;-81
2023/01/26 04:32:41;;;;;;;141.90;46.15;;;;;;;0.38;100.00;102028.91;4997677;28;20133;-78
2023/01/26 04:35:08;;;;;;;127.20;42.15;;;;;;;0.43;100.00;102034.28;4995028;28;20054;-79
2023/01/26 04:37:35;;;;;;;157.82;49.10;;;;;;;0.41;100.00;102022.88;4983473;28;20042;-77
2023/01/26 04:40:03;;;;;;;137.00;41.78;;;;;;;0.40;100.00;102026.69;4988735;28;20043;-80
2023/01/26 04:42:30;;;;;;;149.32;48.60;;;;;;;0.43;100.00;102031.56;4996587;28;20050;-80
2023/01/26 04:44:56;;;;;;;138.35;41.40;;;;;;;0.38;100.00;102018.84;4994056;28;20137;-79
2023/01/26 04:47:28;;;;;;;152.32;45.42;;;;;;;0.44;100.00;102022.28;4988251;28;20603;-80
2023/01/26 04:49:55;;;;;;;149.65;45.30;;;;;;;0.35;100.00;102010.44;4982509;28;20047;-81
2023/01/26 04:52:31;;;;;;;152.63;46.45;;;;;;;0.43;100.00;102026.91;4983617;28;20078;-80
2023/01/26 04:55:01;;;;;;;153.75;45.42;;;;;;;0.45;100.00;102019.25;4981448;28;20082;-79
2023/01/26 04:57:27;;;;;;;140.15;43.08;;;;;;;0.42;100.00;102016.31;4979347;28;20047;-80
2023/01/26 04:59:53;;;;;;;141.38;42.80;;;;;;;0.38;100.00;102018.84;4977764;28;20620;-78
2023/01/26 05:02:20;;;;;;;148.00;45.72;;;;;;;0.42;100.00;102016.31;4994535;28;20053;-79
2023/01/26 05:04:47;;;;;;;130.75;42.72;;;;;;;0.40;100.00;102015.81;4993847;28;20078;-79
2023/01/26 05:07:13;;;;;;;136.60;42.20;;;;;;;0.37;100.00;102019.91;4980101;28;20055;-79
2023/01/26 05:09:43;;;;;;;145.30;45.78;;;;;;;0.30;100.00;102007.81;4977565;28;20049;-79
2023/01/26 05:14:54;;;;;;;123.72;41.88;;;;;;;0.41;100.00;102022.88;4996998;28;20133;-79
2023/01/26 05:17:21;;;;;;;126.93;39.28;;;;;;;0.46;100.00;102023.59;4991964;28;20065;-78
2023/01/26 05:19:47;;;;;;;129.90;40.75;;;;;;;0.46;100.00;102011.88;4974807;28;20047;-80
2023/01/26 05:22:14;;;;;;;124.00;40.22;;;;;;;0.53;100.00;102024.00;4974677;28;20053;-79
2023/01/26 05:24:40;;;;;;;136.15;43.78;;;;;;;0.57;100.00;102016.06;4971979;28;20049;-79
2023/01/26 05:27:22;;;;;;;129.32;44.17;;;;;;;0.52;100.00;102022.41;4991332;28;20539;-78
2023/01/26 05:29:49;;;;;;;139.75;43.92;;;;;;;0.59;100.00;102022.00;4976684;28;20053;-79
2023/01/26 05:32:16;;;;;;;141.10;45.88;;;;;;;0.62;100.00;102035.03;4993598;28;20046;-79
2023/01/26 05:34:43;;;;;;;128.60;42.30;;;;;;;0.59;100.00;102031.00;4987510;28;20069;-79
2023/01/26 05:37:10;;;;;;;130.93;43.15;;;;;;;0.62;100.00;102032.28;4989512;28;20567;-79
2023/01/26 05:39:39;;;;;;;134.65;43.08;;;;;;;0.60;100.00;102039.97;4968572;28;20102;-78
2023/01/26 05:42:06;;;;;;;116.55;39.42;;;;;;;0.58;100.00;102032.09;4973132;28;20043;-79
2023/01/26 05:44:32;;;;;;;114.80;40.72;;;;;;;0.54;100.00;102027.56;4973345;28;20041;-79
2023/01/26 05:46:59;;;;;;;110.28;41.90;;;;;;;0.58;100.00;102037.56;4993587;28;20052;-79
2023/01/26 05:49:26;;;;;;;122.47;41.30;;;;;;;0.57;100.00;102033.19;4975657;28;20137;-79
2023/01/26 05:51:52;;;;;;;118.80;40.35;;;;;;;0.60;100.00;102034.53;4974642;28;20700;-80
2023/01/26 05:54:19;;;;;;;109.45;38.97;;;;;;;0.61;100.00;102028.75;4973606;28;20405;-80
2023/01/26 05:56:45;;;;;;;113.35;38.72;;;;;;;0.65;100.00;102026.25;4971368;28;20378;-80
2023/01/26 05:59:12;;;;;;;113.63;38.72;;;;;;;0.67;100.00;102032.22;4970051;28;20050;-79
2023/01/26 06:01:39;;;;;;;124.55;38.05;;;;;;;0.62;100.00;102019.50;4971906;28;20046;-80
2023/01/26 06:04:05;;;;;;;108.70;35.22;;;;;;;0.62;100.00;102033.13;4996059;28;20157;-80
2023/01/26 06:06:32;;;;;;;116.57;39.33;;;;;;;0.60;100.00;102020.91;4990368;28;20443;-80
2023/01/26 06:08:58;;;;;;;99.03;32.03;;;;;;;0.62;100.00;102029.56;4973114;28;20055;-80
2023/01/26 06:11:25;;;;;;;94.53;32.55;;;;;;;0.54;100.00;102030.28;4977247;28;20451;-78
2023/01/26 06:13:52;;;;;;;83.47;27.00;;;;;;;0.51;100.00;102030.88;4991255;28;20106;-79
2023/01/26 06:16:18;;;;;;;93.13;34.25;;;;;;;0.53;100.00;102023.19;4993775;28;20500;-79
2023/01/26 06:18:48;;;;;;;107.82;34.83;;;;;;;0.54;100.00;102025.63;4977477;28;20071;-79
2023/01/26 06:21:15;;;;;;;111.07;35.13;;;;;;;0.58;100.00;102031.28;4975572;28;20090;-80
2023/01/26 06:23:42;;;;;;;101.93;31.85;;;;;;;0.63;100.00;102040.19;4988393;28;20042;-80
2023/01/26 06:26:08;;;;;;;97.57;32.88;;;;;;;0.61;100.00;102033.41;4983985;28;20049;-80
2023/01/26 06:28:36;;;;;;;100.75;33.92;;;;;;;0.67;100.00;102035.75;4970152;28;20513;-80
2023/01/26 06:31:05;;;;;;;106.05;33.30;;;;;;;0.69;100.00;102036.25;4978491;28;20039;-80
2023/01/26 06:33:35;;;;;;;97.72;34.30;;;;;;;0.69;100.00;102032.72;4975739;28;20080;-81
2023/01/26 06:36:04;;;;;;;99.28;32.10;;;;;;;0.71;100.00;102036.75;4981807;28;20429;-79
2023/01/26 06:38:31;;;;;;;93.45;31.58;;;;;;;0.69;100.00;102030.81;4971996;28;20050;-79
2023/01/26 06:41:02;;;;;;;100.68;33.38;;;;;;;0.69;100.00;102028.09;4972537;28;20051;-79
2023/01/26 06:43:30;;;;;;;93.90;34.05;;;;;;;0.70;100.00;102029.69;4991914;28;20137;-80
2023/01/26 06:45:57;;;;;;;101.60;33.30;;;;;;;0.68;100.00;102022.94;4970973;28;20089;-80
2023/01/26 06:48:25;;;;;;;112.30;33.95;;;;;;;0.67;100.00;102034.94;4972309;28;20053;-78
2023/01/26 06:50:52;;;;;;;101.20;32.25;;;;;;;0.64;100.00;102041.00;5002864;28;20114;-80
2023/01/26 06:53:31;;;;;;;99.03;33.30;;;;;;;0.61;100.00;102034.22;4986236;28;20508;-80
2023/01/26 06:55:57;;;;;;;105.07;32.50;;;;;;;0.65;100.00;102039.88;4976749;28;20050;-80
2023/01/26 06:58:24;;;;;;;107.93;35.08;;;;;;;0.63;100.00;102036.63;4971942;28;20092;-78
2023/01/26 07:00:51;;;;;;;114.13;36.15;;;;;;;0.73;100.00;102036.44;4979791;28;20047;-79
2023/01/26 07:03:18;;;;;;;111.03;36.45;;;;;;;0.73;100.00;102040.00;4999146;28;20038;-81
2023/01/26 07:05:44;;;;;;;91.95;31.33;;;;;;;0.76;100.00;102038.59;4983982;28;20057;-80
2023/01/26 07:08:11;;;;;;;97.45;33.80;;;;;;;0.80;100.00;102043.13;4987537;28;20061;-81
2023/01/26 07:10:37;;;;;;;114.38;33.58;;;;;;;0.78;100.00;102030.94;4982375;28;20082;-79
2023/01/26 07:13:05;;;;;;;90.82;31.92;;;;;;;0.77;100.00;102042.94;4980233;28;20511;-80
2023/01/26 07:15:32;;;;;;;95.97;32.53;;;;;;;0.76;100.00;102038.59;4976102;28;20896;-80
2023/01/26 07:17:59;;;;;;;89.03;31.48;;;;;;;0.82;100.00;102040.13;4973928;28;20058;-80
2023/01/26 07:20:26;;;;;;;89.38;30.33;;;;;;;0.83;100.00;102039.81;4969715;28;20082;-79
2023/01/26 07:22:53;;;;;;;91.75;32.38;;;;;;;0.82;100.00;102027.31;4974719;28;20136;-78
2023/01/26 07:25:19;;;;;;;90.00;30.05;;;;;;;0.80;100.00;102036.88;4988792;28;20046;-81
2023/01/26 07:27:46;;;;;;;80.35;29.90;;;;;;;0.78;100.00;102031.75;4980752;28;20073;-79
2023/01/26 07:30:13;;;;;;;90.03;30.40;;;;;;;0.82;100.00;102040.13;4971730;28;20135;-79
2023/01/26 07:32:39;;;;;;;95.47;32.80;;;;;;;0.84;100.00;102037.91;4978927;28;20113;-80
2023/01/26 07:35:07;;;;;;;88.55;31.80;;;;;;;0.88;100.00;102038.91;4984104;28;20436;-82
2023/01/26 07:37:33;;;;;;;82.80;28.65;;;;;;;0.79;100.00;102038.00;4974316;28;20057;-77
2023/01/26 07:40:00;;;;;;;82.00;31.25;;;;;;;0.84;100.00;102035.19;4969193;28;20053;-79
2023/01/26 07:42:26;;;;;;;87.95;33.65;;;;;;;0.78;100.00;102028.22;4973992;28;20429;-81
2023/01/26 07:44:53;;;;;;;95.80;32.42;;;;;;;0.84;100.00;102046.09;4979119;28;20110;-80
2023/01/26 07:47:19;;;;;;;89.20;33.20;;;;;;;0.82;100.00;102045.56;4987941;28;20082;-79
2023/01/26 07:49:46;;;;;;;87.30;34.05;;;;;;;0.87;100.00;102048.22;4979692;28;20051;-79
2023/01/26 07:52:12;;;;;;;94.60;34.72;;;;;;;0.84;100.00;102044.16;4983527;28;20142;-79
2023/01/26 07:54:39;;;;;;;83.55;33.85;;;;;;;0.87;100.00;102048.22;4985880;28;20411;-79
2023/01/26 07:57:07;;;;;;;83.38;30.98;;;;;;;0.78;100.00;102036.38;4983447;28;20105;-79
2023/01/26 07:59:34;;;;;;;87.22;34.35;;;;;;;0.90;100.00;102050.31;4979045;28;20050;-79
2023/01/26 08:02:01;;;;;;;83.80;32.40;;;;;;;0.86;100.00;102041.13;4975615;28;20168;-79
2023/01/26 08:04:27;;;;;;;83.28;32.35;;;;;;;0.91;100.00;102046.50;4979861;28;20047;-79
2023/01/26 08:06:54;;;;;;;93.57;36.63;;;;;;;0.98;100.00;102053.16;4989375;28;20050;-80
2023/01/26 08:09:20;;;;;;;96.68;37.25;;;;;;;0.99;100.00;102051.25;4976807;28;20085;-79
2023/01/26 08:11:47;;;;;;;86.53;33.05;;;;;;;0.97;100.00;102056.16;4987230;28;20076;-81
2023/01/26 08:14:14;;;;;;;91.05;35.10;;;;;;;1.01;100.00;102049.03;4971454;28;20057;-80
2023/01/26 08:16:40;;;;;;;92.20;34.00;;;;;;;1.03;100.00;102054.97;4964786;28;20043;-78
2023/01/26 08:19:07;;;;;;;80.40;29.73;;;;;;;0.96;100.00;102054.56;4962983;28;20055;-80
2023/01/26 08:21:33;;;;;;;90.47;34.70;;;;;;;1.00;100.00;102061.03;4962149;28;20047;-80
2023/01/26 08:24:02;;;;;;;95.80;35.22;;;;;;;1.04;100.00;102064.78;4961937;28;20059;-80
2023/01/26 08:26:28;;;;;;;95.10;37.08;;;;;;;1.09;100.00;102061.94;4960718;28;20399;-78
2023/01/26 08:33:09;;;;;;;95.30;34.05;;;;;;;1.06;100.00;102051.66;4861392;29;20949;-78
2023/01/26 08:35:36;;;;;;;94.05;32.55;;;;;;;1.10;100.00;102055.38;4883231;29;20048;-80
2023/01/26 08:38:03;;;;;;;100.65;36.47;;;;;;;1.05;100.00;102047.31;4878768;29;20084;-79
2023/01/26 08:40:29;;;;;;;94.43;32.95;;;;;;;1.08;100.00;102063.84;4886098;29;20057;-79
2023/01/26 08:42:59;;;;;;;103.53;36.50;;;;;;;1.14;100.00;102061.84;4876683;29;20132;-79
2023/01/26 08:45:26;;;;;;;101.03;34.97;;;;;;;1.16;100.00;102062.38;4872703;29;20057;-81
2023/01/26 08:47:53;;;;;;;88.35;32.97;;;;;;;1.20;100.00;102066.09;4870533;29;20081;-79
2023/01/26 08:50:19;;;;;;;108.28;36.60;;;;;;;1.21;100.00;102065.00;4860525;29;20057;-80
2023/01/26 08:52:46;;;;;;;86.57;30.00;;;;;;;1.15;100.00;102072.44;4861093;29;20160;-80
2023/01/26 08:55:13;;;;;;;93.25;32.25;;;;;;;1.13;100.00;102062.97;4870484;29;20049;-79
2023/01/26 08:57:40;;;;;;;87.70;31.30;;;;;;;1.09;100.00;102072.84;4861037;29;20973;-79
2023/01/26 09:00:07;;;;;;;81.75;31.75;;;;;;;1.13;100.00;102071.97;4859588;29;20078;-80
2023/01/26 09:02:34;;;;;;;87.25;31.00;;;;;;;1.13;100.00;102071.97;4874072;29;20053;-79
2023/01/26 09:05:01;;;;;;;86.95;30.95;;;;;;;1.10;100.00;102069.84;4880530;29;20908;-80
2023/01/26 09:07:28;;;;;;;88.28;31.42;;;;;;;1.17;100.00;102077.59;4879209;29;20059;-80
2023/01/26 09:09:54;;;;;;;98.78;35.25;;;;;;;1.17;100.00;102080.31;4921545;28;20050;-80
2023/01/26 09:12:21;;;;;;;99.60;35.38;;;;;;;1.24;100.00;102081.56;4954122;28;20061;-80
2023/01/26 09:14:47;;;;;;;94.45;33.17;;;;;;;1.29;100.00;102084.19;4954781;28;20059;-81
2023/01/26 09:17:14;;;;;;;87.45;32.53;;;;;;;1.31;100.00;102087.41;4959925;28;20238;-81
2023/01/26 09:19:40;;;;;;;88.97;32.05;;;;;;;1.29;100.00;102084.19;4958661;28;20166;-81
2023/01/26 09:22:25;;;;;;;86.10;32.22;;;;;;;1.33;100.00;102085.22;4947543;28;20052;-81
2023/01/26 09:24:55;;;;;;;89.60;29.75;;;;;;;1.34;100.00;102084.09;4972523;28;20054;-82
2023/01/26 09:27:22;;;;;;;91.32;31.60;;;;;;;1.33;100.00;102081.66;4946699;28;20059;-81
2023/01/26 09:29:48;;;;;;;72.93;26.67;;;;;;;1.30;100.00;102085.00;4947417;28;20987;-80
2023/01/26 09:32:15;;;;;;;56.65;21.20;;;;;;;1.27;100.00;102080.94;4955065;28;20409;-80
2023/01/26 09:34:41;;;;;;;64.03;24.10;;;;;;;1.27;100.00;102085.59;4948714;28;20057;-78
2023/01/26 09:37:11;;;;;;;54.88;21.48;;;;;;;1.23;100.00;102090.03;4950236;28;20058;-80
2023/01/26 09:39:37;;;;;;;64.53;21.27;;;;;;;1.22;100.00;102082.97;4944742;28;20058;-80
2023/01/26 09:42:13;;;;;;;51.15;18.80;;;;;;;1.25;100.00;102096.00;4955974;28;20945;-79
2023/01/26 09:44:47;;;;;;;72.28;24.27;;;;;;;1.23;100.00;102090.84;4955696;28;20785;-79
2023/01/26 09:47:49;;;;;;;69.38;24.73;;;;;;;1.34;100.00;102088.72;4947909;28;20046;-81
2023/01/26 09:50:27;;;;;;;73.00;25.77;;;;;;;1.37;100.00;102088.13;4930740;28;20046;-78
2023/01/26 09:53:11;;;;;;;73.15;25.63;;;;;;;1.40;100.00;102087.50;4952981;28;20046;-77
2023/01/26 09:55:40;;;;;;;81.78;27.25;;;;;;;1.42;100.00;102082.59;4949156;28;20147;-80
2023/01/26 09:58:21;;;;;;;72.47;26.00;;;;;;;1.48;100.00;102084.88;4944350;28;20058;-79
2023/01/26 10:00:51;;;;;;;67.07;24.02;;;;;;;1.57;100.00;102091.25;4951974;28;20054;-81
2023/01/26 10:03:38;;;;;;;69.47;23.13;;;;;;;1.64;100.00;102082.66;4957760;28;20050;-79
2023/01/26 10:06:27;;;;;;;66.13;25.55;;;;;;;1.68;100.00;102070.84;4946512;28;20047;-83
2023/01/26 10:08:56;;;;;;;69.55;24.08;;;;;;;1.71;100.00;102067.50;4948125;28;20534;-77
2023/01/26 10:11:30;;;;;;;59.85;22.90;;;;;;;1.78;100.00;102084.25;4947321;28;20055;-80
2023/01/26 10:14:32;;;;;;;61.83;22.40;;;;;;;1.79;100.00;102080.41;4953619;28;20050;-79
2023/01/26 10:17:02;;;;;;;47.75;18.38;;;;;;;1.82;100.00;102073.56;4944331;28;20051;-81
2023/01/26 10:19:38;;;;;;;55.72;22.02;;;;;;;1.85;100.00;102076.47;4952253;28;20895;-81
2023/01/26 10:22:12;;;;;;;49.85;17.88;;;;;;;1.75;100.00;102073.13;4951724;28;20186;-80
2023/01/26 10:24:39;;;;;;;53.10;20.20;;;;;;;1.66;100.00;102036.78;4955772;28;20391;-80
2023/01/26 10:27:12;;;;;;;47.10;17.67;;;;;;;1.88;100.00;102062.22;4959877;28;20053;-82
2023/01/26 10:29:39;;;;;;;49.47;17.45;;;;;;;1.96;100.00;102064.19;4956126;28;20066;-81
2023/01/26 10:32:13;;;;;;;49.08;16.15;;;;;;;1.99;100.00;102055.41;4953189;28;20582;-82
2023/01/26 10:34:41;;;;;;;46.50;16.65;;;;;;;2.01;100.00;102058.66;4956076;28;20114;-82
2023/01/26 10:37:20;;;;;;;43.55;15.43;;;;;;;2.01;100.00;102052.38;4958497;28;20050;-80
2023/01/26 10:40:02;;;;;;;42.30;16.17;;;;;;;2.07;100.00;102054.69;4956512;28;20878;-80
2023/01/26 10:42:32;;;;;;;40.72;15.80;;;;;;;2.15;100.00;102055.84;4950270;28;20600;-80
2023/01/26 10:45:04;;;;;;;30.63;11.10;;;;;;;2.06;100.00;102057.72;4955681;28;20516;-80
2023/01/26 10:47:30;;;;;;;37.22;14.65;;;;;;;2.08;100.00;102056.28;4941981;28;20071;-80
2023/01/26 10:50:19;;;;;;;37.67;13.05;;;;;;;1.94;100.00;102032.88;4951044;28;20950;-80
2023/01/26 10:53:00;;;;;;;41.42;14.52;;;;;;;2.03;100.00;102040.00;4956534;28;20057;-79
2023/01/26 10:55:29;;;;;;;34.80;13.13;;;;;;;2.10;100.00;102051.31;4953486;28;20806;-81
2023/01/26 10:57:55;;;;;;;35.63;13.77;;;;;;;2.12;100.00;102046.38;4958019;28;20078;-80
2023/01/26 11:00:27;;;;;;;38.50;13.80;;;;;;;2.18;100.00;102055.25;4958510;28;20050;-80
2023/01/26 11:03:00;;;;;;;36.63;11.95;;;;;;;2.12;100.00;102057.28;4959489;28;20053;-81
2023/01/26 11:05:26;;;;;;;34.55;11.85;;;;;;;2.12;100.00;102051.81;4954995;28;20122;-80
2023/01/26 11:07:59;;;;;;;32.97;10.95;;;;;;;2.07;100.00;102048.41;4955679;28;20061;-81
2023/01/26 11:10:37;;;;;;;32.70;12.35;;;;;;;2.10;100.00;102045.84;4947944;28;20070;-81
2023/01/26 11:13:18;;;;;;;33.58;12.57;;;;;;;2.17;100.00;102048.97;4953638;28;20055;-82
2023/01/26 11:15:51;;;;;;;31.20;12.80;;;;;;;2.06;100.00;102042.13;4958224;28;20115;-81
2023/01/26 11:18:41;;;;;;;41.97;13.85;;;;;;;2.16;100.00;102041.09;4963697;28;20145;-79
2023/01/26 11:21:16;;;;;;;34.70;13.18;;;;;;;2.23;100.00;102041.47;4964104;28;20046;-81
2023/01/26 11:23:46;;;;;;;37.15;14.65;;;;;;;2.20;100.00;102042.09;4969383;28;20119;-81
2023/01/26 11:26:40;;;;;;;38.17;15.25;;;;;;;2.28;100.00;102036.69;4964494;28;20074;-81
2023/01/26 11:29:29;;;;;;;36.65;15.35;;;;;;;2.34;100.00;102040.13;4965326;28;20061;-80
2023/01/26 11:32:10;;;;;;;33.38;14.10;;;;;;;2.37;100.00;102044.97;4951980;28;20055;-78
2023/01/26 11:34:56;;;;;;;37.67;13.95;;;;;;;2.36;100.00;102046.88;4951384;28;20138;-80
2023/01/26 11:37:43;;;;;;;34.42;13.80;;;;;;;2.39;100.00;102039.97;4951721;28;20054;-80
2023/01/26 11:40:25;;;;;;;37.70;14.07;;;;;;;2.39;100.00;102040.78;4948434;28;20501;-79
2023/01/26 11:42:57;;;;;;;34.25;11.55;;;;;;;2.42;100.00;102042.09;4951144;28;20062;-79
2023/01/26 11:45:29;;;;;;;29.15;10.88;;;;;;;2.36;100.00;102022.28;4954978;28;20054;-79
2023/01/26 11:48:34;;;;;;;30.95;10.88;;;;;;;2.27;100.00;102037.78;4955005;28;20051;-79
2023/01/26 11:51:24;;;;;;;28.63;10.98;;;;;;;2.26;100.00;102028.00;4957634;28;20050;-80
2023/01/26 11:54:08;;;;;;;30.45;10.93;;;;;;;2.28;100.00;102027.69;4956106;28;20066;-81
2023/01/26 11:56:40;;;;;;;33.10;10.90;;;;;;;2.36;100.00;102030.47;4956682;28;20057;-81
2023/01/26 11:59:15;;;;;;;29.70;10.73;;;;;;;2.39;100.00;102016.22;4949391;28;20079;-81
2023/01/26 12:01:57;;;;;;;31.55;11.05;;;;;;;2.43;100.00;102019.13;4954915;28;20057;-81
2023/01/26 12:04:24;;;;;;;30.85;10.40;;;;;;;2.39;100.00;102012.66;4948575;28;20047;-78
2023/01/26 12:06:58;;;;;;;31.58;11.25;;;;;;;2.37;100.00;102006.72;4952083;28;20575;-80
2023/01/26 12:09:31;;;;;;;32.65;11.63;;;;;;;2.43;100.00;101998.06;4955182;28;20141;-80
2023/01/26 12:12:03;;;;;;;30.30;10.75;;;;;;;2.48;100.00;102000.69;4955008;28;20059;-78
2023/01/26 12:14:48;;;;;;;30.10;12.10;;;;;;;2.53;100.00;101999.72;4957583;28;20799;-81